sensor_id;sensor_type;location;lat;lon;timestamp;temperature;humidity
43047;DHT22;28672;49.358;8.780;2022-08-19T00:02:23;20.10;99.90
43047;DHT22;28672;49.358;8.780;2022-08-19T00:04:49;20.10;99.90
43047;DHT22;28672;49.358;8.780;2022-08-19T00:07:18;20.20;99.90
43047;DHT22;28672;49.358;8.780;2022-08-19T00:09:44;20.10;99.90
43047;DHT22;28672;49.358;8.780;2022-08-19T00:12:10;20.10;99.90
43047;DHT22;28672;49.358;8.780;2022-08-19T00:14:37;20.10;99.90
43047;DHT22;28672;49.358;8.780;2022-08-19T00:17:05;20.00;99.90
43047;DHT22;28672;49.358;8.780;2022-08-19T00:19:31;19.90;99.90
43047;DHT22;28672;49.358;8.780;2022-08-19T00:21:57;19.90;99.90
43047;DHT22;28672;49.358;8.780;2022-08-19T00:24:23;19.90;99.90
43047;DHT22;28672;49.358;8.780;2022-08-19T00:26:49;19.80;99.90
43047;DHT22;28672;49.358;8.780;2022-08-19T00:29:18;19.90;99.90
43047;DHT22;28672;49.358;8.780;2022-08-19T00:31:45;19.90;99.90
43047;DHT22;28672;49.358;8.780;2022-08-19T00:34:12;19.80;99.90
43047;DHT22;28672;49.358;8.780;2022-08-19T00:36:39;19.90;99.90
43047;DHT22;28672;49.358;8.780;2022-08-19T00:39:04;19.90;99.90
43047;DHT22;28672;49.358;8.780;2022-08-19T00:41:30;19.90;99.90
43047;DHT22;28672;49.358;8.780;2022-08-19T00:46:26;20.00;99.90
43047;DHT22;28672;49.358;8.780;2022-08-19T00:48:52;20.00;99.90
43047;DHT22;28672;49.358;8.780;2022-08-19T00:51:18;19.90;99.90
43047;DHT22;28672;49.358;8.780;2022-08-19T00:53:43;19.90;99.90
43047;DHT22;28672;49.358;8.780;2022-08-19T00:56:10;19.90;99.90
43047;DHT22;28672;49.358;8.780;2022-08-19T00:58:36;19.90;99.90
43047;DHT22;28672;49.358;8.780;2022-08-19T01:01:03;19.90;99.90
43047;DHT22;28672;49.358;8.780;2022-08-19T01:03:29;20.00;99.90
43047;DHT22;28672;49.358;8.780;2022-08-19T01:05:55;19.90;99.90
43047;DHT22;28672;49.358;8.780;2022-08-19T01:08:21;19.90;99.90
43047;DHT22;28672;49.358;8.780;2022-08-19T01:10:50;19.80;99.90
43047;DHT22;28672;49.358;8.780;2022-08-19T01:13:19;19.90;99.90
43047;DHT22;28672;49.358;8.780;2022-08-19T01:15:50;19.90;99.90
43047;DHT22;28672;49.358;8.780;2022-08-19T01:18:18;19.90;99.90
43047;DHT22;28672;49.358;8.780;2022-08-19T01:20:45;19.80;99.90
43047;DHT22;28672;49.358;8.780;2022-08-19T01:23:11;19.80;99.90
43047;DHT22;28672;49.358;8.780;2022-08-19T01:25:42;19.80;99.90
43047;DHT22;28672;49.358;8.780;2022-08-19T01:28:19;19.90;99.90
43047;DHT22;28672;49.358;8.780;2022-08-19T01:30:45;19.80;99.90
43047;DHT22;28672;49.358;8.780;2022-08-19T01:33:11;19.90;99.90
43047;DHT22;28672;49.358;8.780;2022-08-19T01:35:37;19.90;99.90
43047;DHT22;28672;49.358;8.780;2022-08-19T01:38:06;19.90;99.90
43047;DHT22;28672;49.358;8.780;2022-08-19T01:40:35;19.90;99.90
43047;DHT22;28672;49.358;8.780;2022-08-19T01:43:02;19.90;99.90
43047;DHT22;28672;49.358;8.780;2022-08-19T01:45:30;19.90;99.90
43047;DHT22;28672;49.358;8.780;2022-08-19T01:47:57;19.90;99.90
43047;DHT22;28672;49.358;8.780;2022-08-19T01:50:24;19.90;99.90
43047;DHT22;28672;49.358;8.780;2022-08-19T01:52:50;19.90;99.90
43047;DHT22;28672;49.358;8.780;2022-08-19T01:55:20;19.90;99.90
43047;DHT22;28672;49.358;8.780;2022-08-19T01:57:50;19.90;99.90
43047;DHT22;28672;49.358;8.780;2022-08-19T02:00:19;19.80;99.90
43047;DHT22;28672;49.358;8.780;2022-08-19T02:02:45;19.80;99.90
43047;DHT22;28672;49.358;8.780;2022-08-19T02:05:12;19.80;99.90
43047;DHT22;28672;49.358;8.780;2022-08-19T02:07:39;19.90;99.90
43047;DHT22;28672;49.358;8.780;2022-08-19T02:10:09;19.90;99.90
43047;DHT22;28672;49.358;8.780;2022-08-19T02:12:35;19.90;99.90
43047;DHT22;28672;49.358;8.780;2022-08-19T02:15:02;19.90;99.90
43047;DHT22;28672;49.358;8.780;2022-08-19T02:17:29;20.00;99.90
43047;DHT22;28672;49.358;8.780;2022-08-19T02:19:55;20.00;99.90
43047;DHT22;28672;49.358;8.780;2022-08-19T02:22:22;20.10;99.90
43047;DHT22;28672;49.358;8.780;2022-08-19T02:24:48;20.10;99.90
43047;DHT22;28672;49.358;8.780;2022-08-19T02:27:14;20.00;99.90
43047;DHT22;28672;49.358;8.780;2022-08-19T02:29:39;20.00;99.90
43047;DHT22;28672;49.358;8.780;2022-08-19T02:32:06;19.90;99.90
43047;DHT22;28672;49.358;8.780;2022-08-19T02:34:32;19.90;99.90
43047;DHT22;28672;49.358;8.780;2022-08-19T02:36:57;19.90;99.90
43047;DHT22;28672;49.358;8.780;2022-08-19T02:39:23;19.90;99.90
43047;DHT22;28672;49.358;8.780;2022-08-19T02:41:48;19.90;99.90
43047;DHT22;28672;49.358;8.780;2022-08-19T02:44:15;19.90;99.90
43047;DHT22;28672;49.358;8.780;2022-08-19T02:46:40;19.90;99.90
43047;DHT22;28672;49.358;8.780;2022-08-19T02:49:07;19.90;99.90
43047;DHT22;28672;49.358;8.780;2022-08-19T02:51:39;19.80;99.90
43047;DHT22;28672;49.358;8.780;2022-08-19T02:54:07;19.80;99.90
43047;DHT22;28672;49.358;8.780;2022-08-19T02:56:38;19.80;99.90
43047;DHT22;28672;49.358;8.780;2022-08-19T02:59:05;19.80;99.90
43047;DHT22;28672;49.358;8.780;2022-08-19T03:01:37;19.80;99.90
43047;DHT22;28672;49.358;8.780;2022-08-19T03:04:07;19.80;99.90
43047;DHT22;28672;49.358;8.780;2022-08-19T03:06:40;19.80;99.90
43047;DHT22;28672;49.358;8.780;2022-08-19T03:09:06;19.80;99.90
43047;DHT22;28672;49.358;8.780;2022-08-19T03:11:32;19.80;99.90
43047;DHT22;28672;49.358;8.780;2022-08-19T03:13:58;19.80;99.90
43047;DHT22;28672;49.358;8.780;2022-08-19T03:16:27;19.70;99.90
43047;DHT22;28672;49.358;8.780;2022-08-19T03:18:55;19.70;99.90
43047;DHT22;28672;49.358;8.780;2022-08-19T03:21:24;19.60;99.90
43047;DHT22;28672;49.358;8.780;2022-08-19T03:23:53;19.60;99.90
43047;DHT22;28672;49.358;8.780;2022-08-19T03:26:18;19.50;99.90
43047;DHT22;28672;49.358;8.780;2022-08-19T03:28:44;19.50;99.90
43047;DHT22;28672;49.358;8.780;2022-08-19T03:31:19;19.40;99.90
43047;DHT22;28672;49.358;8.780;2022-08-19T03:33:46;19.40;99.90
43047;DHT22;28672;49.358;8.780;2022-08-19T03:36:15;19.40;99.90
43047;DHT22;28672;49.358;8.780;2022-08-19T03:38:47;19.30;99.90
43047;DHT22;28672;49.358;8.780;2022-08-19T03:41:19;19.30;99.90
43047;DHT22;28672;49.358;8.780;2022-08-19T03:43:45;19.30;99.90
43047;DHT22;28672;49.358;8.780;2022-08-19T03:46:15;19.30;99.90
43047;DHT22;28672;49.358;8.780;2022-08-19T03:48:42;19.30;99.90
43047;DHT22;28672;49.358;8.780;2022-08-19T03:51:19;19.20;99.90
43047;DHT22;28672;49.358;8.780;2022-08-19T03:53:46;19.20;99.90
43047;DHT22;28672;49.358;8.780;2022-08-19T03:56:12;19.20;99.90
43047;DHT22;28672;49.358;8.780;2022-08-19T03:58:39;19.10;99.90
43047;DHT22;28672;49.358;8.780;2022-08-19T04:01:12;19.10;99.90
43047;DHT22;28672;49.358;8.780;2022-08-19T04:03:39;19.00;99.90
43047;DHT22;28672;49.358;8.780;2022-08-19T04:06:12;19.10;99.90
43047;DHT22;28672;49.358;8.780;2022-08-19T04:08:38;19.00;99.90
43047;DHT22;28672;49.358;8.780;2022-08-19T04:11:07;19.00;99.90
43047;DHT22;28672;49.358;8.780;2022-08-19T04:13:33;18.90;99.90
43047;DHT22;28672;49.358;8.780;2022-08-19T04:15:59;18.90;99.90
43047;DHT22;28672;49.358;8.780;2022-08-19T04:18:25;18.90;99.90
43047;DHT22;28672;49.358;8.780;2022-08-19T04:20:51;18.90;99.90
43047;DHT22;28672;49.358;8.780;2022-08-19T04:23:17;18.90;99.90
43047;DHT22;28672;49.358;8.780;2022-08-19T04:25:44;18.90;99.90
43047;DHT22;28672;49.358;8.780;2022-08-19T04:28:12;18.90;99.90
43047;DHT22;28672;49.358;8.780;2022-08-19T04:30:47;18.90;99.90
43047;DHT22;28672;49.358;8.780;2022-08-19T04:33:14;18.80;99.90
43047;DHT22;28672;49.358;8.780;2022-08-19T04:35:42;18.80;99.90
43047;DHT22;28672;49.358;8.780;2022-08-19T04:38:10;18.80;99.90
43047;DHT22;28672;49.358;8.780;2022-08-19T04:40:43;18.90;99.90
43047;DHT22;28672;49.358;8.780;2022-08-19T04:43:28;18.90;99.90
43047;DHT22;28672;49.358;8.780;2022-08-19T04:45:54;18.90;99.90
43047;DHT22;28672;49.358;8.780;2022-08-19T04:48:20;18.90;99.90
43047;DHT22;28672;49.358;8.780;2022-08-19T04:50:54;18.90;99.90
43047;DHT22;28672;49.358;8.780;2022-08-19T04:53:33;18.90;99.90
43047;DHT22;28672;49.358;8.780;2022-08-19T04:56:03;18.90;99.90
43047;DHT22;28672;49.358;8.780;2022-08-19T04:58:29;18.90;99.90
43047;DHT22;28672;49.358;8.780;2022-08-19T05:00:55;18.90;99.90
43047;DHT22;28672;49.358;8.780;2022-08-19T05:03:20;18.90;99.90
43047;DHT22;28672;49.358;8.780;2022-08-19T05:05:47;18.90;99.90
43047;DHT22;28672;49.358;8.780;2022-08-19T05:08:18;19.00;99.90
43047;DHT22;28672;49.358;8.780;2022-08-19T05:10:46;19.00;99.90
43047;DHT22;28672;49.358;8.780;2022-08-19T05:13:12;19.00;99.90
43047;DHT22;28672;49.358;8.780;2022-08-19T05:15:38;19.00;99.90
43047;DHT22;28672;49.358;8.780;2022-08-19T05:18:04;19.00;99.90
43047;DHT22;28672;49.358;8.780;2022-08-19T05:20:48;19.10;99.90
43047;DHT22;28672;49.358;8.780;2022-08-19T05:23:32;19.10;99.90
43047;DHT22;28672;49.358;8.780;2022-08-19T05:25:57;19.20;99.90
43047;DHT22;28672;49.358;8.780;2022-08-19T05:28:23;19.30;99.90
43047;DHT22;28672;49.358;8.780;2022-08-19T05:30:48;19.40;99.90
43047;DHT22;28672;49.358;8.780;2022-08-19T05:33:16;19.40;99.90
43047;DHT22;28672;49.358;8.780;2022-08-19T05:35:42;19.40;99.90
43047;DHT22;28672;49.358;8.780;2022-08-19T05:38:09;19.40;99.90
43047;DHT22;28672;49.358;8.780;2022-08-19T05:40:37;19.50;99.90
43047;DHT22;28672;49.358;8.780;2022-08-19T05:43:03;19.50;99.90
43047;DHT22;28672;49.358;8.780;2022-08-19T05:45:29;19.60;99.90
43047;DHT22;28672;49.358;8.780;2022-08-19T05:47:54;19.60;99.90
43047;DHT22;28672;49.358;8.780;2022-08-19T05:50:20;19.70;99.90
43047;DHT22;28672;49.358;8.780;2022-08-19T05:52:46;19.80;99.90
43047;DHT22;28672;49.358;8.780;2022-08-19T05:55:11;19.90;99.90
43047;DHT22;28672;49.358;8.780;2022-08-19T05:57:37;20.00;99.90
43047;DHT22;28672;49.358;8.780;2022-08-19T06:00:05;20.10;99.90
43047;DHT22;28672;49.358;8.780;2022-08-19T06:02:34;20.10;99.90
43047;DHT22;28672;49.358;8.780;2022-08-19T06:05:01;20.30;99.90
43047;DHT22;28672;49.358;8.780;2022-08-19T06:07:27;20.40;99.90
43047;DHT22;28672;49.358;8.780;2022-08-19T06:09:54;20.40;99.90
43047;DHT22;28672;49.358;8.780;2022-08-19T06:12:20;20.50;99.90
43047;DHT22;28672;49.358;8.780;2022-08-19T06:14:51;20.60;99.90
43047;DHT22;28672;49.358;8.780;2022-08-19T06:17:18;20.60;99.90
43047;DHT22;28672;49.358;8.780;2022-08-19T06:19:43;20.60;99.90
43047;DHT22;28672;49.358;8.780;2022-08-19T06:22:09;20.70;99.90
43047;DHT22;28672;49.358;8.780;2022-08-19T06:24:37;20.80;99.90
43047;DHT22;28672;49.358;8.780;2022-08-19T06:27:03;20.80;99.90
43047;DHT22;28672;49.358;8.780;2022-08-19T06:29:30;20.90;99.90
43047;DHT22;28672;49.358;8.780;2022-08-19T06:31:59;21.00;99.90
43047;DHT22;28672;49.358;8.780;2022-08-19T06:34:27;21.10;99.90
43047;DHT22;28672;49.358;8.780;2022-08-19T06:36:54;21.10;99.90
43047;DHT22;28672;49.358;8.780;2022-08-19T06:39:31;21.20;99.90
43047;DHT22;28672;49.358;8.780;2022-08-19T06:42:01;21.30;99.90
43047;DHT22;28672;49.358;8.780;2022-08-19T06:44:30;21.40;99.90
43047;DHT22;28672;49.358;8.780;2022-08-19T06:47:00;21.40;99.90
43047;DHT22;28672;49.358;8.780;2022-08-19T06:49:27;21.40;99.90
43047;DHT22;28672;49.358;8.780;2022-08-19T06:51:56;21.40;99.90
43047;DHT22;28672;49.358;8.780;2022-08-19T06:54:23;21.50;99.90
43047;DHT22;28672;49.358;8.780;2022-08-19T06:56:48;21.50;99.90
43047;DHT22;28672;49.358;8.780;2022-08-19T06:59:20;21.50;99.90
43047;DHT22;28672;49.358;8.780;2022-08-19T07:01:50;21.60;99.90
43047;DHT22;28672;49.358;8.780;2022-08-19T07:04:29;21.70;99.90
43047;DHT22;28672;49.358;8.780;2022-08-19T07:07:03;21.80;99.90
43047;DHT22;28672;49.358;8.780;2022-08-19T07:09:31;21.80;99.90
43047;DHT22;28672;49.358;8.780;2022-08-19T07:11:57;21.90;99.90
43047;DHT22;28672;49.358;8.780;2022-08-19T07:14:26;22.00;99.90
43047;DHT22;28672;49.358;8.780;2022-08-19T07:16:53;22.10;99.90
43047;DHT22;28672;49.358;8.780;2022-08-19T07:19:21;22.20;99.90
43047;DHT22;28672;49.358;8.780;2022-08-19T07:21:48;22.30;99.90
43047;DHT22;28672;49.358;8.780;2022-08-19T07:24:15;22.30;99.90
43047;DHT22;28672;49.358;8.780;2022-08-19T07:26:43;22.40;99.90
43047;DHT22;28672;49.358;8.780;2022-08-19T07:29:10;22.40;99.90
43047;DHT22;28672;49.358;8.780;2022-08-19T07:31:36;22.40;99.90
43047;DHT22;28672;49.358;8.780;2022-08-19T07:34:07;22.50;99.90
43047;DHT22;28672;49.358;8.780;2022-08-19T07:36:35;22.50;99.90
43047;DHT22;28672;49.358;8.780;2022-08-19T07:39:05;22.50;99.90
43047;DHT22;28672;49.358;8.780;2022-08-19T07:41:31;22.60;99.90
43047;DHT22;28672;49.358;8.780;2022-08-19T07:43:59;22.60;99.90
43047;DHT22;28672;49.358;8.780;2022-08-19T07:46:29;22.70;99.90
43047;DHT22;28672;49.358;8.780;2022-08-19T07:48:56;22.70;99.90
43047;DHT22;28672;49.358;8.780;2022-08-19T07:51:22;22.80;99.90
43047;DHT22;28672;49.358;8.780;2022-08-19T07:53:48;22.70;99.90
43047;DHT22;28672;49.358;8.780;2022-08-19T07:56:16;22.70;99.90
43047;DHT22;28672;49.358;8.780;2022-08-19T07:58:44;22.80;99.90
43047;DHT22;28672;49.358;8.780;2022-08-19T08:01:13;22.90;99.90
43047;DHT22;28672;49.358;8.780;2022-08-19T08:03:39;22.90;99.90
43047;DHT22;28672;49.358;8.780;2022-08-19T08:06:24;23.20;99.90
43047;DHT22;28672;49.358;8.780;2022-08-19T08:09:09;23.40;99.90
43047;DHT22;28672;49.358;8.780;2022-08-19T08:11:48;23.80;99.90
43047;DHT22;28672;49.358;8.780;2022-08-19T08:14:20;24.10;99.90
43047;DHT22;28672;49.358;8.780;2022-08-19T08:16:47;24.60;99.90
43047;DHT22;28672;49.358;8.780;2022-08-19T08:19:15;24.80;99.90
43047;DHT22;28672;49.358;8.780;2022-08-19T08:21:41;25.00;99.90
43047;DHT22;28672;49.358;8.780;2022-08-19T08:24:07;25.20;99.90
43047;DHT22;28672;49.358;8.780;2022-08-19T08:26:33;25.20;99.90
43047;DHT22;28672;49.358;8.780;2022-08-19T08:28:59;25.40;99.90
43047;DHT22;28672;49.358;8.780;2022-08-19T08:31:24;25.50;99.90
43047;DHT22;28672;49.358;8.780;2022-08-19T08:33:50;25.10;99.90
43047;DHT22;28672;49.358;8.780;2022-08-19T08:36:16;25.20;99.90
43047;DHT22;28672;49.358;8.780;2022-08-19T08:38:43;25.20;99.90
43047;DHT22;28672;49.358;8.780;2022-08-19T08:41:39;25.30;99.90
43047;DHT22;28672;49.358;8.780;2022-08-19T08:44:13;25.40;99.90
43047;DHT22;28672;49.358;8.780;2022-08-19T08:46:48;25.60;99.90
43047;DHT22;28672;49.358;8.780;2022-08-19T08:51:58;25.70;99.90
43047;DHT22;28672;49.358;8.780;2022-08-19T08:54:39;25.70;99.90
43047;DHT22;28672;49.358;8.780;2022-08-19T08:57:12;26.10;99.90
43047;DHT22;28672;49.358;8.780;2022-08-19T08:59:41;26.40;99.90
43047;DHT22;28672;49.358;8.780;2022-08-19T09:02:08;26.60;99.90
43047;DHT22;28672;49.358;8.780;2022-08-19T09:04:36;26.60;99.90
43047;DHT22;28672;49.358;8.780;2022-08-19T09:09:50;26.90;99.90
43047;DHT22;28672;49.358;8.780;2022-08-19T09:12:53;26.60;99.90
43047;DHT22;28672;49.358;8.780;2022-08-19T09:15:18;26.60;99.90
43047;DHT22;28672;49.358;8.780;2022-08-19T09:17:46;26.90;99.90
43047;DHT22;28672;49.358;8.780;2022-08-19T09:20:19;26.50;99.90
43047;DHT22;28672;49.358;8.780;2022-08-19T09:22:45;26.60;99.90
43047;DHT22;28672;49.358;8.780;2022-08-19T09:25:15;26.70;99.90
43047;DHT22;28672;49.358;8.780;2022-08-19T09:27:42;26.50;99.90
43047;DHT22;28672;49.358;8.780;2022-08-19T09:30:11;26.60;99.90
43047;DHT22;28672;49.358;8.780;2022-08-19T09:32:37;27.00;99.90
43047;DHT22;28672;49.358;8.780;2022-08-19T09:35:04;26.90;99.90
43047;DHT22;28672;49.358;8.780;2022-08-19T09:37:31;26.90;99.90
43047;DHT22;28672;49.358;8.780;2022-08-19T09:39:57;27.20;99.90
43047;DHT22;28672;49.358;8.780;2022-08-19T09:42:23;27.40;99.90
43047;DHT22;28672;49.358;8.780;2022-08-19T09:44:48;27.50;99.90
43047;DHT22;28672;49.358;8.780;2022-08-19T09:47:14;27.30;99.90
43047;DHT22;28672;49.358;8.780;2022-08-19T09:49:40;27.40;99.90
43047;DHT22;28672;49.358;8.780;2022-08-19T09:52:09;27.00;99.90
43047;DHT22;28672;49.358;8.780;2022-08-19T09:54:35;27.00;99.90
43047;DHT22;28672;49.358;8.780;2022-08-19T09:57:01;27.30;99.90
43047;DHT22;28672;49.358;8.780;2022-08-19T09:59:27;27.30;99.90
43047;DHT22;28672;49.358;8.780;2022-08-19T10:01:53;27.30;99.90
43047;DHT22;28672;49.358;8.780;2022-08-19T10:04:19;27.10;99.90
43047;DHT22;28672;49.358;8.780;2022-08-19T10:06:47;27.10;99.90
43047;DHT22;28672;49.358;8.780;2022-08-19T10:09:14;27.10;99.90
43047;DHT22;28672;49.358;8.780;2022-08-19T10:11:42;27.00;99.90
43047;DHT22;28672;49.358;8.780;2022-08-19T10:14:07;26.80;99.90
43047;DHT22;28672;49.358;8.780;2022-08-19T10:16:33;26.40;99.90
43047;DHT22;28672;49.358;8.780;2022-08-19T10:19:00;26.30;99.90
43047;DHT22;28672;49.358;8.780;2022-08-19T10:21:29;26.60;99.90
43047;DHT22;28672;49.358;8.780;2022-08-19T10:23:58;27.00;99.90
43047;DHT22;28672;49.358;8.780;2022-08-19T10:26:27;27.40;99.90
43047;DHT22;28672;49.358;8.780;2022-08-19T10:28:53;27.30;99.90
43047;DHT22;28672;49.358;8.780;2022-08-19T10:31:22;27.20;99.90
43047;DHT22;28672;49.358;8.780;2022-08-19T10:33:49;27.20;99.90
43047;DHT22;28672;49.358;8.780;2022-08-19T10:36:19;27.20;99.90
43047;DHT22;28672;49.358;8.780;2022-08-19T10:38:48;27.60;99.90
43047;DHT22;28672;49.358;8.780;2022-08-19T10:41:18;27.50;99.90
43047;DHT22;28672;49.358;8.780;2022-08-19T10:43:44;27.40;99.90
43047;DHT22;28672;49.358;8.780;2022-08-19T10:46:13;27.50;99.90
43047;DHT22;28672;49.358;8.780;2022-08-19T10:48:39;27.40;99.90
43047;DHT22;28672;49.358;8.780;2022-08-19T10:51:05;27.60;99.90
43047;DHT22;28672;49.358;8.780;2022-08-19T10:53:50;27.70;99.90
43047;DHT22;28672;49.358;8.780;2022-08-19T10:56:16;27.70;99.90
43047;DHT22;28672;49.358;8.780;2022-08-19T10:59:00;28.10;99.90
43047;DHT22;28672;49.358;8.780;2022-08-19T11:01:29;28.40;99.90
43047;DHT22;28672;49.358;8.780;2022-08-19T11:03:56;28.20;99.90
43047;DHT22;28672;49.358;8.780;2022-08-19T11:06:23;27.90;99.90
43047;DHT22;28672;49.358;8.780;2022-08-19T11:08:51;27.70;99.90
43047;DHT22;28672;49.358;8.780;2022-08-19T11:11:17;27.60;99.90
43047;DHT22;28672;49.358;8.780;2022-08-19T11:13:43;28.00;99.90
43047;DHT22;28672;49.358;8.780;2022-08-19T11:16:18;28.20;99.90
43047;DHT22;28672;49.358;8.780;2022-08-19T11:18:47;28.30;99.90
43047;DHT22;28672;49.358;8.780;2022-08-19T11:21:31;28.40;99.90
43047;DHT22;28672;49.358;8.780;2022-08-19T11:23:58;28.80;99.90
43047;DHT22;28672;49.358;8.780;2022-08-19T11:26:25;28.80;99.90
43047;DHT22;28672;49.358;8.780;2022-08-19T11:28:51;29.10;99.90
43047;DHT22;28672;49.358;8.780;2022-08-19T11:31:21;28.90;99.90
43047;DHT22;28672;49.358;8.780;2022-08-19T11:33:47;28.90;99.90
43047;DHT22;28672;49.358;8.780;2022-08-19T11:36:16;28.80;99.90
43047;DHT22;28672;49.358;8.780;2022-08-19T11:38:41;29.10;99.90
43047;DHT22;28672;49.358;8.780;2022-08-19T11:41:08;29.10;99.90
43047;DHT22;28672;49.358;8.780;2022-08-19T11:43:34;29.30;99.90
43047;DHT22;28672;49.358;8.780;2022-08-19T11:46:04;29.60;99.90
43047;DHT22;28672;49.358;8.780;2022-08-19T11:48:31;29.80;99.90
43047;DHT22;28672;49.358;8.780;2022-08-19T11:50:57;30.10;99.90
43047;DHT22;28672;49.358;8.780;2022-08-19T11:53:23;30.10;99.90
43047;DHT22;28672;49.358;8.780;2022-08-19T11:55:50;30.20;99.90
43047;DHT22;28672;49.358;8.780;2022-08-19T11:58:16;30.10;99.90
43047;DHT22;28672;49.358;8.780;2022-08-19T12:00:43;30.10;99.90
43047;DHT22;28672;49.358;8.780;2022-08-19T12:03:10;29.90;99.90
43047;DHT22;28672;49.358;8.780;2022-08-19T12:05:37;29.70;99.90
43047;DHT22;28672;49.358;8.780;2022-08-19T12:08:03;29.40;99.90
43047;DHT22;28672;49.358;8.780;2022-08-19T12:10:29;29.40;99.90
43047;DHT22;28672;49.358;8.780;2022-08-19T12:12:54;29.40;99.90
43047;DHT22;28672;49.358;8.780;2022-08-19T12:15:20;29.20;99.90
43047;DHT22;28672;49.358;8.780;2022-08-19T12:17:45;29.60;99.90
43047;DHT22;28672;49.358;8.780;2022-08-19T12:20:13;29.60;99.90
43047;DHT22;28672;49.358;8.780;2022-08-19T12:22:42;30.10;99.90
43047;DHT22;28672;49.358;8.780;2022-08-19T12:25:11;30.20;99.90
43047;DHT22;28672;49.358;8.780;2022-08-19T12:27:38;30.30;99.90
43047;DHT22;28672;49.358;8.780;2022-08-19T12:30:06;29.90;99.90
43047;DHT22;28672;49.358;8.780;2022-08-19T12:32:33;30.10;99.90
43047;DHT22;28672;49.358;8.780;2022-08-19T12:34:59;30.20;99.90
43047;DHT22;28672;49.358;8.780;2022-08-19T12:37:25;30.50;99.90
43047;DHT22;28672;49.358;8.780;2022-08-19T12:39:50;30.60;99.90
43047;DHT22;28672;49.358;8.780;2022-08-19T12:42:16;30.40;99.90
43047;DHT22;28672;49.358;8.780;2022-08-19T12:44:43;30.60;99.90
43047;DHT22;28672;49.358;8.780;2022-08-19T12:47:11;30.70;99.90
43047;DHT22;28672;49.358;8.780;2022-08-19T12:49:38;31.10;99.90
43047;DHT22;28672;49.358;8.780;2022-08-19T12:52:05;31.10;99.90
43047;DHT22;28672;49.358;8.780;2022-08-19T12:54:32;31.00;99.90
43047;DHT22;28672;49.358;8.780;2022-08-19T12:56:58;30.70;99.90
43047;DHT22;28672;49.358;8.780;2022-08-19T12:59:25;30.50;99.90
43047;DHT22;28672;49.358;8.780;2022-08-19T13:01:50;30.20;99.90
43047;DHT22;28672;49.358;8.780;2022-08-19T13:04:16;29.80;99.90
43047;DHT22;28672;49.358;8.780;2022-08-19T13:06:42;29.70;99.90
43047;DHT22;28672;49.358;8.780;2022-08-19T13:09:08;29.70;99.90
43047;DHT22;28672;49.358;8.780;2022-08-19T13:11:34;29.50;99.90
43047;DHT22;28672;49.358;8.780;2022-08-19T13:14:01;29.60;99.90
43047;DHT22;28672;49.358;8.780;2022-08-19T13:16:27;29.30;99.90
43047;DHT22;28672;49.358;8.780;2022-08-19T13:18:53;29.50;99.90
43047;DHT22;28672;49.358;8.780;2022-08-19T13:21:21;29.50;99.90
43047;DHT22;28672;49.358;8.780;2022-08-19T13:23:48;29.50;99.90
43047;DHT22;28672;49.358;8.780;2022-08-19T13:26:14;29.70;99.90
43047;DHT22;28672;49.358;8.780;2022-08-19T13:28:41;30.00;99.90
43047;DHT22;28672;49.358;8.780;2022-08-19T13:31:26;29.90;99.90
43047;DHT22;28672;49.358;8.780;2022-08-19T13:34:12;29.60;99.90
43047;DHT22;28672;49.358;8.780;2022-08-19T13:36:38;29.80;99.90
43047;DHT22;28672;49.358;8.780;2022-08-19T13:39:05;29.80;99.90
43047;DHT22;28672;49.358;8.780;2022-08-19T13:41:30;29.80;98.40
43047;DHT22;28672;49.358;8.780;2022-08-19T13:43:56;29.20;99.90
43047;DHT22;28672;49.358;8.780;2022-08-19T13:46:22;29.30;99.90
43047;DHT22;28672;49.358;8.780;2022-08-19T13:48:48;29.10;99.90
43047;DHT22;28672;49.358;8.780;2022-08-19T13:51:15;29.10;99.90
43047;DHT22;28672;49.358;8.780;2022-08-19T13:53:42;29.30;99.90
43047;DHT22;28672;49.358;8.780;2022-08-19T13:56:10;29.40;99.90
43047;DHT22;28672;49.358;8.780;2022-08-19T13:58:36;29.50;99.90
43047;DHT22;28672;49.358;8.780;2022-08-19T14:01:02;29.60;99.90
43047;DHT22;28672;49.358;8.780;2022-08-19T14:03:28;29.60;99.90
43047;DHT22;28672;49.358;8.780;2022-08-19T14:05:54;29.50;99.70
43047;DHT22;28672;49.358;8.780;2022-08-19T14:08:20;29.30;99.40
43047;DHT22;28672;49.358;8.780;2022-08-19T14:10:45;29.40;99.70
43047;DHT22;28672;49.358;8.780;2022-08-19T14:13:14;29.60;99.70
43047;DHT22;28672;49.358;8.780;2022-08-19T14:15:41;29.70;99.10
43047;DHT22;28672;49.358;8.780;2022-08-19T14:18:06;29.70;98.50
43047;DHT22;28672;49.358;8.780;2022-08-19T14:20:35;29.40;97.90
43047;DHT22;28672;49.358;8.780;2022-08-19T14:23:00;29.40;97.80
43047;DHT22;28672;49.358;8.780;2022-08-19T14:25:28;29.30;97.90
43047;DHT22;28672;49.358;8.780;2022-08-19T14:27:55;29.50;97.90
43047;DHT22;28672;49.358;8.780;2022-08-19T14:30:32;29.40;97.60
43047;DHT22;28672;49.358;8.780;2022-08-19T14:32:59;29.60;97.90
43047;DHT22;28672;49.358;8.780;2022-08-19T14:35:27;29.80;98.00
43047;DHT22;28672;49.358;8.780;2022-08-19T14:37:53;30.00;97.20
43047;DHT22;28672;49.358;8.780;2022-08-19T14:40:22;29.80;96.70
43047;DHT22;28672;49.358;8.780;2022-08-19T14:42:55;29.50;96.80
43047;DHT22;28672;49.358;8.780;2022-08-19T14:45:25;29.20;97.10
43047;DHT22;28672;49.358;8.780;2022-08-19T14:47:51;29.40;97.50
43047;DHT22;28672;49.358;8.780;2022-08-19T14:50:17;29.40;97.50
43047;DHT22;28672;49.358;8.780;2022-08-19T14:52:43;29.60;97.80
43047;DHT22;28672;49.358;8.780;2022-08-19T14:55:09;29.60;97.40
43047;DHT22;28672;49.358;8.780;2022-08-19T14:57:34;29.70;97.50
43047;DHT22;28672;49.358;8.780;2022-08-19T15:00:00;29.50;97.50
43047;DHT22;28672;49.358;8.780;2022-08-19T15:02:25;29.50;97.60
43047;DHT22;28672;49.358;8.780;2022-08-19T15:04:51;29.50;97.80
43047;DHT22;28672;49.358;8.780;2022-08-19T15:07:17;29.50;97.80
43047;DHT22;28672;49.358;8.780;2022-08-19T15:09:42;29.50;97.50
43047;DHT22;28672;49.358;8.780;2022-08-19T15:12:08;29.50;97.50
43047;DHT22;28672;49.358;8.780;2022-08-19T15:14:36;29.40;97.80
43047;DHT22;28672;49.358;8.780;2022-08-19T15:17:04;29.40;97.40
43047;DHT22;28672;49.358;8.780;2022-08-19T15:19:31;29.30;96.80
43047;DHT22;28672;49.358;8.780;2022-08-19T15:21:57;29.00;97.10
43047;DHT22;28672;49.358;8.780;2022-08-19T15:24:23;29.00;97.40
43047;DHT22;28672;49.358;8.780;2022-08-19T15:26:52;28.90;96.90
43047;DHT22;28672;49.358;8.780;2022-08-19T15:29:18;28.80;96.80
43047;DHT22;28672;49.358;8.780;2022-08-19T15:31:43;28.90;97.00
43047;DHT22;28672;49.358;8.780;2022-08-19T15:34:10;28.70;97.10
43047;DHT22;28672;49.358;8.780;2022-08-19T15:36:36;28.60;97.00
43047;DHT22;28672;49.358;8.780;2022-08-19T15:39:03;28.60;97.00
43047;DHT22;28672;49.358;8.780;2022-08-19T15:41:30;28.60;97.20
43047;DHT22;28672;49.358;8.780;2022-08-19T15:44:00;28.60;97.40